Wiseton, Canada
Current Conditions -  °F | °C
As of 10:00 AM on Thursday 18 Dec 2014 (Local Time) from CYKY Reporting Station
Moderate Fog Moderate Fog  
Wind Chill:   Ceiling: 200
Heat Index: 14°   Visibility: 0.25mi
Dew Point: 12°   Wind: 7mph
Humidity: 93%   Direction: 240°WSW
Pressure: 29.87"   Gusts: NA
Location:  51.32°N, 107.65°W
Report Text: CYKY 181600Z 24006KT 1/4SM FZFG VV002 M10/M11 A2987 RMK FG8 SLP161
Loading
Personal Weather Stations






























Interactive Weather Map New forecast layout! Learn more

10-Day Weather Forecast

Advertisements
Track Severe Weather on mobile